Time;durP1;ratioP1;P1;durP2;ratioP2;P2;SDS_P1;SDS_P2;PMS_P1;PMS_P2;Temp;Humidity;BMP_temperature;BMP_pressure;BME280_temperature;BME280_humidity;BME280_pressure;Samples;Min_cycle;Max_cycle;Signal;HPM_P1;HPM_P2
2021/11/22 00:02:16;;;;;;;6.40;0.45;;;4.90;99.90;;;;;;5057576;28;20056;-67
2021/11/22 00:04:41;;;;;;;8.27;0.40;;;4.90;99.90;;;;;;5055967;28;20123;-67
2021/11/22 00:07:08;;;;;;;4.85;0.47;;;4.90;99.90;;;;;;5057090;28;20120;-67
2021/11/22 00:09:33;;;;;;;8.30;0.70;;;4.90;99.90;;;;;;5056713;28;20076;-67
2021/11/22 00:12:00;;;;;;;5.68;1.10;;;4.90;99.90;;;;;;5058610;28;20092;-67
2021/11/22 00:14:26;;;;;;;4.43;0.35;;;4.90;99.90;;;;;;5058964;28;20028;-67
2021/11/22 00:16:52;;;;;;;6.25;0.40;;;4.90;99.90;;;;;;5057402;28;20040;-68
2021/11/22 00:19:17;;;;;;;3.22;0.43;;;4.80;99.90;;;;;;5057266;28;20250;-67
2021/11/22 00:21:43;;;;;;;2.55;0.75;;;4.80;99.90;;;;;;5055616;28;20048;-67
2021/11/22 00:24:09;;;;;;;5.72;0.70;;;4.80;99.90;;;;;;5056624;28;20043;-67
2021/11/22 00:26:34;;;;;;;5.28;1.08;;;4.80;99.90;;;;;;5058972;28;20032;-67
2021/11/22 00:29:00;;;;;;;4.10;0.73;;;4.80;99.90;;;;;;5057203;28;20045;-67
2021/11/22 00:31:26;;;;;;;4.20;0.60;;;4.70;99.90;;;;;;5058646;28;20116;-67
2021/11/22 00:33:53;;;;;;;4.95;0.50;;;4.80;99.90;;;;;;5058623;28;20489;-67
2021/11/22 00:36:19;;;;;;;8.15;0.80;;;4.70;99.90;;;;;;5056953;28;20127;-67
2021/11/22 00:38:44;;;;;;;2.40;0.38;;;4.70;99.90;;;;;;5059902;28;20139;-67
2021/11/22 00:41:10;;;;;;;4.50;0.60;;;4.70;99.90;;;;;;5058596;28;20409;-67
2021/11/22 00:43:36;;;;;;;8.57;0.70;;;4.70;99.90;;;;;;5090800;28;20040;-67
2021/11/22 00:46:02;;;;;;;8.10;0.88;;;4.70;99.90;;;;;;5057784;28;20052;-68
2021/11/22 00:48:27;;;;;;;6.43;0.70;;;4.70;99.90;;;;;;5059531;28;20085;-67
2021/11/22 00:50:54;;;;;;;7.80;0.90;;;4.60;99.90;;;;;;5047248;28;20040;-67
2021/11/22 00:53:21;;;;;;;6.50;0.80;;;4.60;99.90;;;;;;5060420;28;20045;-67
2021/11/22 00:55:46;;;;;;;5.40;0.50;;;4.50;99.90;;;;;;5062486;28;20032;-67
2021/11/22 00:58:12;;;;;;;7.43;0.57;;;4.60;99.90;;;;;;5060937;28;20035;-67
2021/11/22 01:00:38;;;;;;;6.13;0.63;;;4.50;99.90;;;;;;5047004;28;20049;-67
2021/11/22 01:03:04;;;;;;;4.78;0.60;;;4.50;99.90;;;;;;5061588;28;20399;-67
2021/11/22 01:05:31;;;;;;;5.57;0.60;;;4.50;99.90;;;;;;5060440;28;20074;-67
2021/11/22 01:07:57;;;;;;;4.18;0.65;;;4.50;99.90;;;;;;5061324;28;20084;-67
2021/11/22 01:10:23;;;;;;;2.97;0.65;;;4.50;99.90;;;;;;5060712;28;20115;-67
2021/11/22 01:12:50;;;;;;;6.75;0.60;;;4.50;99.90;;;;;;5049433;28;20040;-67
2021/11/22 01:15:21;;;;;;;6.03;0.90;;;4.40;99.90;;;;;;5063018;28;20041;-68
2021/11/22 01:17:48;;;;;;;7.85;0.80;;;4.50;99.90;;;;;;5064119;28;20052;-67
2021/11/22 01:20:16;;;;;;;9.30;0.47;;;4.40;99.90;;;;;;5059262;28;20040;-67
2021/11/22 01:22:43;;;;;;;9.25;0.68;;;4.40;99.90;;;;;;5064027;28;20044;-67
2021/11/22 01:25:10;;;;;;;3.70;0.50;;;4.40;99.90;;;;;;5076934;28;20486;-67
2021/11/22 01:27:35;;;;;;;4.43;0.80;;;4.40;99.90;;;;;;5058655;28;20044;-67
2021/11/22 01:30:09;;;;;;;5.93;0.70;;;4.40;99.90;;;;;;5060901;28;20041;-67
2021/11/22 01:32:35;;;;;;;6.28;0.73;;;4.30;99.90;;;;;;5062834;28;20036;-67
2021/11/22 01:35:01;;;;;;;6.75;0.73;;;4.30;99.90;;;;;;5062270;28;20033;-67
2021/11/22 01:37:27;;;;;;;5.50;0.47;;;4.30;99.90;;;;;;5041462;28;20402;-67
2021/11/22 01:39:52;;;;;;;8.15;0.60;;;4.30;99.90;;;;;;5059129;28;20078;-67
2021/11/22 01:42:18;;;;;;;11.48;0.85;;;4.30;99.90;;;;;;5078175;28;20079;-67
2021/11/22 01:44:44;;;;;;;6.13;0.60;;;4.20;99.90;;;;;;5077526;28;20040;-67
2021/11/22 01:47:10;;;;;;;4.82;0.60;;;4.20;99.90;;;;;;5060076;28;21033;-67
2021/11/22 01:49:35;;;;;;;4.05;0.70;;;4.20;99.90;;;;;;5093876;28;20040;-67
2021/11/22 01:52:02;;;;;;;3.22;0.40;;;4.20;99.90;;;;;;5059775;28;20037;-67
2021/11/22 01:54:34;;;;;;;3.30;0.40;;;4.20;99.90;;;;;;5068474;28;20737;-67
2021/11/22 01:57:00;;;;;;;6.88;0.60;;;4.20;99.90;;;;;;5095387;27;20085;-67
2021/11/22 01:59:25;;;;;;;1.05;0.30;;;4.20;99.90;;;;;;5064629;28;20048;-67
2021/11/22 02:01:51;;;;;;;11.18;0.85;;;4.20;99.90;;;;;;5059727;28;20048;-67
2021/11/22 02:04:17;;;;;;;5.93;0.45;;;4.20;99.90;;;;;;5059513;28;20056;-67
2021/11/22 02:06:43;;;;;;;12.18;1.27;;;4.20;99.90;;;;;;5094809;28;20045;-67
2021/11/22 02:09:09;;;;;;;6.65;0.60;;;4.20;99.90;;;;;;5061674;28;20506;-67
2021/11/22 02:11:36;;;;;;;6.97;0.55;;;4.10;99.90;;;;;;5062901;28;20082;-67
2021/11/22 02:14:02;;;;;;;4.00;0.40;;;4.20;99.90;;;;;;5060564;28;20033;-67
2021/11/22 02:16:28;;;;;;;3.97;0.50;;;4.10;99.90;;;;;;5057959;28;20402;-67
2021/11/22 02:18:55;;;;;;;4.22;0.40;;;4.10;99.90;;;;;;5062829;28;20549;-67
2021/11/22 02:21:22;;;;;;;4.72;0.32;;;4.10;99.90;;;;;;5067641;28;20051;-67
2021/11/22 02:23:48;;;;;;;7.75;0.70;;;4.10;99.90;;;;;;5062462;28;20147;-67
2021/11/22 02:26:14;;;;;;;3.83;0.40;;;4.10;99.90;;;;;;5058732;28;20048;-67
2021/11/22 02:28:41;;;;;;;5.57;0.60;;;4.10;99.90;;;;;;5061735;28;20041;-67
2021/11/22 02:31:07;;;;;;;4.22;0.38;;;4.00;99.90;;;;;;5061137;28;20037;-67
2021/11/22 02:33:33;;;;;;;6.90;0.40;;;4.10;99.90;;;;;;5060324;28;20051;-67
2021/11/22 02:36:00;;;;;;;2.50;0.28;;;4.10;99.90;;;;;;5059862;28;20036;-67
2021/11/22 02:38:32;;;;;;;7.47;0.70;;;4.10;99.90;;;;;;5060304;28;20109;-67
2021/11/22 02:41:00;;;;;;;6.63;0.50;;;4.10;99.90;;;;;;5058849;28;20129;-67
2021/11/22 02:43:27;;;;;;;4.53;0.98;;;4.00;99.90;;;;;;5060709;28;20052;-67
2021/11/22 02:45:53;;;;;;;7.88;0.50;;;4.10;99.90;;;;;;5059366;28;20039;-67
2021/11/22 02:48:18;;;;;;;4.75;0.52;;;4.00;99.90;;;;;;5060605;28;20040;-67
2021/11/22 02:50:45;;;;;;;6.20;0.60;;;4.00;99.90;;;;;;5057563;28;20086;-67
2021/11/22 02:53:11;;;;;;;5.15;0.43;;;4.10;99.90;;;;;;5067088;28;20683;-67
2021/11/22 02:55:37;;;;;;;3.47;0.60;;;4.10;99.90;;;;;;5057973;28;20117;-67
2021/11/22 02:58:03;;;;;;;7.18;0.45;;;4.00;99.90;;;;;;5058034;28;20097;-67
2021/11/22 03:00:31;;;;;;;4.10;0.30;;;4.00;99.90;;;;;;5061533;28;20044;-67
2021/11/22 03:02:57;;;;;;;3.65;0.40;;;4.00;99.90;;;;;;5058676;28;20406;-67
2021/11/22 03:05:23;;;;;;;5.60;0.50;;;4.00;99.90;;;;;;5096747;27;20070;-67
2021/11/22 03:07:51;;;;;;;5.65;0.57;;;4.00;99.90;;;;;;5062972;28;20047;-67
2021/11/22 03:10:19;;;;;;;4.00;0.50;;;3.90;99.90;;;;;;5057218;28;20063;-67
2021/11/22 03:12:45;;;;;;;5.72;0.30;;;3.90;99.90;;;;;;5060395;28;20036;-67
2021/11/22 03:15:14;;;;;;;4.70;1.25;;;4.00;99.90;;;;;;5060203;28;20044;-67
2021/11/22 03:17:41;;;;;;;3.60;0.47;;;4.00;99.90;;;;;;5057306;28;20048;-68
2021/11/22 03:20:12;;;;;;;4.63;0.90;;;3.90;99.90;;;;;;5058881;28;20136;-67
2021/11/22 03:22:38;;;;;;;2.15;0.30;;;3.90;99.90;;;;;;5061451;28;20130;-67
2021/11/22 03:25:06;;;;;;;3.80;0.38;;;3.90;99.90;;;;;;5060146;28;20052;-67
2021/11/22 03:27:32;;;;;;;3.38;0.28;;;3.90;99.90;;;;;;5061420;28;20532;-66
2021/11/22 03:29:58;;;;;;;5.03;0.40;;;3.90;99.90;;;;;;5057897;28;20123;-67
2021/11/22 03:32:23;;;;;;;8.07;0.35;;;3.90;99.90;;;;;;5062563;28;20170;-67
2021/11/22 03:34:49;;;;;;;5.10;0.40;;;3.80;99.90;;;;;;5060732;28;20386;-67
2021/11/22 03:37:15;;;;;;;5.30;0.40;;;3.80;99.90;;;;;;5061909;28;20043;-68
2021/11/22 03:39:48;;;;;;;3.58;0.32;;;3.70;99.90;;;;;;5060814;28;20509;-67
2021/11/22 03:42:16;;;;;;;6.53;0.43;;;3.80;99.90;;;;;;5059664;28;20094;-67
2021/11/22 03:44:43;;;;;;;6.30;0.30;;;3.80;99.90;;;;;;5061679;28;20127;-68
2021/11/22 03:47:09;;;;;;;4.00;0.40;;;3.70;99.90;;;;;;5060563;28;20445;-67
2021/11/22 03:49:35;;;;;;;3.10;0.35;;;3.70;99.90;;;;;;5061885;28;20052;-67
2021/11/22 03:52:02;;;;;;;4.40;0.45;;;3.70;99.90;;;;;;5060470;28;20756;-67
2021/11/22 03:54:28;;;;;;;1.48;0.30;;;3.70;99.90;;;;;;5056506;28;20046;-67
2021/11/22 03:56:54;;;;;;;3.13;0.25;;;3.60;99.90;;;;;;5062561;28;20043;-67
2021/11/22 03:59:20;;;;;;;2.10;0.30;;;3.60;99.90;;;;;;5093311;28;20059;-67
2021/11/22 04:01:45;;;;;;;2.90;0.40;;;3.60;99.90;;;;;;5065840;28;20044;-67
2021/11/22 04:04:11;;;;;;;2.88;0.20;;;3.60;99.90;;;;;;5061541;28;20056;-67
2021/11/22 04:06:37;;;;;;;3.50;0.40;;;3.50;99.90;;;;;;5064301;28;20044;-67
2021/11/22 04:09:04;;;;;;;5.35;0.30;;;3.50;99.90;;;;;;5092979;28;20056;-67
2021/11/22 04:11:30;;;;;;;3.60;0.95;;;3.50;99.90;;;;;;5061653;28;20123;-67
2021/11/22 04:13:56;;;;;;;2.83;0.20;;;3.50;99.90;;;;;;5062744;28;20115;-67
2021/11/22 04:16:21;;;;;;;4.97;0.30;;;3.50;99.90;;;;;;5095437;28;20136;-67
2021/11/22 04:18:48;;;;;;;3.67;0.30;;;3.50;99.90;;;;;;5094403;28;20044;-67
2021/11/22 04:21:15;;;;;;;6.13;0.30;;;3.40;99.90;;;;;;5058858;28;20463;-67
2021/11/22 04:23:41;;;;;;;3.75;0.40;;;3.50;99.90;;;;;;5062173;28;20397;-67
2021/11/22 04:26:10;;;;;;;4.15;0.57;;;3.40;99.90;;;;;;5065864;28;20115;-67
2021/11/22 04:28:36;;;;;;;4.72;0.38;;;3.30;99.90;;;;;;5065424;28;20082;-67
2021/11/22 04:31:03;;;;;;;3.40;0.30;;;3.30;99.90;;;;;;5065508;28;20126;-67
2021/11/22 04:33:28;;;;;;;4.43;0.20;;;3.30;99.90;;;;;;5066002;28;20037;-67
2021/11/22 04:35:54;;;;;;;2.83;0.25;;;3.20;99.90;;;;;;5066159;28;20051;-67
2021/11/22 04:38:20;;;;;;;2.67;0.20;;;3.20;99.90;;;;;;5066017;28;20094;-67
2021/11/22 04:40:45;;;;;;;6.78;0.55;;;3.20;99.90;;;;;;5063911;28;20506;-67
2021/11/22 04:43:11;;;;;;;3.03;0.30;;;3.20;99.90;;;;;;5065028;28;20119;-67
2021/11/22 04:45:37;;;;;;;6.15;0.55;;;3.20;99.90;;;;;;5064196;28;20037;-67
2021/11/22 04:48:05;;;;;;;1.20;0.20;;;3.20;99.90;;;;;;5064962;28;20045;-67
2021/11/22 04:50:31;;;;;;;1.33;0.20;;;3.20;99.90;;;;;;5064426;28;20054;-67
2021/11/22 04:52:59;;;;;;;3.13;0.35;;;3.10;99.90;;;;;;5064592;28;20467;-67
2021/11/22 04:55:25;;;;;;;3.10;0.28;;;3.20;99.90;;;;;;5065279;28;20032;-67
2021/11/22 04:57:51;;;;;;;4.88;0.55;;;3.20;99.90;;;;;;5063728;28;20072;-67
2021/11/22 05:00:20;;;;;;;3.05;0.85;;;3.20;99.90;;;;;;5064956;28;20033;-67
2021/11/22 05:02:46;;;;;;;3.05;0.20;;;3.30;99.90;;;;;;5060445;28;20726;-67
2021/11/22 05:05:13;;;;;;;5.25;0.30;;;3.30;99.90;;;;;;5064488;28;20127;-67
2021/11/22 05:07:38;;;;;;;5.30;1.05;;;3.20;99.90;;;;;;5063316;28;20535;-67
2021/11/22 05:10:06;;;;;;;4.63;0.28;;;3.20;99.90;;;;;;5066747;28;20036;-67
2021/11/22 05:12:32;;;;;;;5.90;0.40;;;3.20;99.90;;;;;;5066012;28;20396;-67
2021/11/22 05:14:58;;;;;;;2.50;0.20;;;3.30;99.90;;;;;;5062804;28;20263;-67
2021/11/22 05:17:23;;;;;;;4.05;0.40;;;3.20;99.90;;;;;;5068352;28;20067;-67
2021/11/22 05:19:49;;;;;;;1.70;0.30;;;3.20;99.90;;;;;;5062756;28;20051;-67
2021/11/22 05:22:21;;;;;;;2.22;0.30;;;3.20;99.90;;;;;;5063953;28;20055;-67
2021/11/22 05:24:50;;;;;;;3.83;0.30;;;3.20;99.90;;;;;;5062563;28;20479;-67
2021/11/22 05:27:18;;;;;;;2.45;0.22;;;3.10;99.90;;;;;;5062173;28;20044;-67
2021/11/22 05:29:43;;;;;;;3.55;0.25;;;3.10;99.90;;;;;;5062365;28;20501;-67
2021/11/22 05:32:10;;;;;;;5.30;0.40;;;3.10;99.90;;;;;;5064793;28;20029;-67
2021/11/22 05:34:37;;;;;;;1.58;0.20;;;3.10;99.90;;;;;;5064050;28;20045;-67
2021/11/22 05:37:03;;;;;;;2.60;0.20;;;3.00;99.90;;;;;;5058059;28;20041;-67
2021/11/22 05:39:29;;;;;;;4.20;0.40;;;3.00;99.90;;;;;;5066572;28;20040;-67
2021/11/22 05:41:55;;;;;;;2.13;0.28;;;3.00;99.90;;;;;;5064709;28;20082;-67
2021/11/22 05:44:21;;;;;;;6.40;0.93;;;3.00;99.90;;;;;;5065274;28;20044;-67
2021/11/22 05:46:49;;;;;;;7.53;0.45;;;3.00;99.90;;;;;;5062890;28;20045;-67
2021/11/22 05:49:15;;;;;;;6.45;0.30;;;2.90;99.90;;;;;;5062110;28;20097;-67
2021/11/22 05:51:44;;;;;;;3.72;0.25;;;2.90;99.90;;;;;;5063747;28;20052;-67
2021/11/22 05:54:10;;;;;;;2.85;0.30;;;2.90;99.90;;;;;;5061897;28;20077;-67
2021/11/22 05:56:37;;;;;;;4.00;0.32;;;2.90;99.90;;;;;;5043631;28;20405;-67
2021/11/22 05:59:06;;;;;;;3.92;0.40;;;2.80;99.90;;;;;;5060771;28;20136;-67
2021/11/22 06:01:32;;;;;;;4.57;0.20;;;2.90;99.90;;;;;;5061498;28;20045;-67
2021/11/22 06:03:58;;;;;;;7.15;0.50;;;2.90;99.90;;;;;;5096504;27;20052;-67
2021/11/22 06:06:23;;;;;;;2.58;0.30;;;2.80;99.90;;;;;;5063421;28;20041;-67
2021/11/22 06:08:49;;;;;;;5.00;1.17;;;2.80;99.90;;;;;;5062876;28;20048;-67
2021/11/22 06:11:14;;;;;;;2.65;0.28;;;2.80;99.90;;;;;;5043471;28;20032;-67
2021/11/22 06:13:40;;;;;;;5.53;0.30;;;2.70;99.90;;;;;;5061186;28;20401;-67
2021/11/22 06:16:06;;;;;;;7.38;0.28;;;2.70;99.90;;;;;;5064367;28;20032;-67
2021/11/22 06:18:32;;;;;;;6.50;0.55;;;2.60;99.90;;;;;;5061777;28;20070;-67
2021/11/22 06:20:57;;;;;;;1.52;0.30;;;2.80;99.90;;;;;;5058018;28;20165;-67
2021/11/22 06:23:23;;;;;;;1.70;0.60;;;2.50;99.90;;;;;;5061278;28;20048;-67
2021/11/22 06:25:49;;;;;;;7.95;0.30;;;2.50;99.90;;;;;;5062211;28;21709;-67
2021/11/22 06:28:14;;;;;;;3.30;0.40;;;2.50;99.90;;;;;;5060031;28;20048;-67
2021/11/22 06:30:40;;;;;;;5.45;0.57;;;2.50;99.90;;;;;;5060592;28;20060;-67
2021/11/22 06:33:06;;;;;;;3.40;0.30;;;2.60;99.90;;;;;;5057880;28;20040;-67
2021/11/22 06:35:33;;;;;;;6.05;0.45;;;2.50;99.90;;;;;;5060502;28;20044;-67
2021/11/22 06:38:01;;;;;;;2.63;0.20;;;2.50;99.90;;;;;;5060384;28;20047;-67
2021/11/22 06:40:27;;;;;;;1.98;0.20;;;2.40;99.90;;;;;;5060873;28;20784;-67
2021/11/22 06:42:52;;;;;;;6.38;0.57;;;2.50;99.90;;;;;;5060611;28;20047;-67
2021/11/22 06:45:25;;;;;;;12.27;0.50;;;2.40;99.90;;;;;;5058725;28;20040;-67
2021/11/22 06:47:51;;;;;;;2.45;0.28;;;2.50;99.90;;;;;;5056864;28;20051;-67
2021/11/22 06:50:18;;;;;;;4.18;0.50;;;2.40;99.90;;;;;;5059730;28;20380;-67
2021/11/22 06:52:44;;;;;;;2.67;0.20;;;2.50;99.90;;;;;;5059986;28;20467;-67
2021/11/22 06:55:10;;;;;;;2.58;0.30;;;2.50;99.90;;;;;;5057947;28;20037;-67
2021/11/22 06:57:36;;;;;;;5.45;0.40;;;2.60;99.90;;;;;;5060139;28;20047;-67
2021/11/22 07:00:05;;;;;;;2.22;0.50;;;2.60;99.90;;;;;;5056841;28;20052;-67
2021/11/22 07:02:31;;;;;;;2.05;0.20;;;2.60;99.90;;;;;;5093115;28;20051;-67
2021/11/22 07:04:57;;;;;;;4.60;0.28;;;2.60;99.90;;;;;;5064112;28;20040;-67
2021/11/22 07:07:24;;;;;;;10.38;0.55;;;2.90;99.90;;;;;;5060213;28;20102;-67
2021/11/22 07:09:51;;;;;;;6.20;0.30;;;2.60;99.90;;;;;;5062319;28;20049;-67
2021/11/22 07:12:17;;;;;;;3.60;0.40;;;2.60;99.90;;;;;;5061257;28;20040;-67
2021/11/22 07:14:43;;;;;;;3.88;1.10;;;2.50;99.90;;;;;;5061970;28;20047;-67
2021/11/22 07:17:10;;;;;;;5.88;0.38;;;2.50;99.90;;;;;;5057927;28;20454;-67
2021/11/22 07:19:36;;;;;;;8.70;0.60;;;2.50;99.90;;;;;;5055910;28;20394;-67
2021/11/22 07:22:06;;;;;;;5.38;0.50;;;2.50;99.90;;;;;;5055704;28;20367;-67
2021/11/22 07:24:32;;;;;;;3.03;0.60;;;2.40;99.90;;;;;;5058969;28;20032;-67
2021/11/22 07:26:58;;;;;;;3.60;0.47;;;2.30;99.90;;;;;;5058913;28;20078;-67
2021/11/22 07:29:24;;;;;;;6.15;0.30;;;2.40;99.90;;;;;;5058015;28;20467;-67
2021/11/22 07:31:50;;;;;;;4.80;0.63;;;2.40;99.90;;;;;;5057328;28;20482;-67
2021/11/22 07:34:15;;;;;;;2.58;0.40;;;2.40;99.90;;;;;;5058589;28;20096;-67
2021/11/22 07:36:42;;;;;;;6.25;0.60;;;2.40;99.90;;;;;;5090618;28;20568;-67
2021/11/22 07:39:07;;;;;;;7.38;0.50;;;2.50;99.90;;;;;;5057089;28;20046;-67
2021/11/22 07:41:33;;;;;;;9.45;0.57;;;2.50;99.90;;;;;;5061085;28;20059;-67
2021/11/22 07:43:59;;;;;;;3.92;1.02;;;2.50;99.90;;;;;;5058459;28;20044;-67
2021/11/22 07:46:26;;;;;;;1.75;0.30;;;2.50;99.90;;;;;;5075321;28;20125;-67
2021/11/22 07:48:53;;;;;;;2.17;0.30;;;2.50;99.90;;;;;;5088055;28;20040;-67
2021/11/22 07:51:19;;;;;;;3.85;0.47;;;2.40;99.90;;;;;;5057302;28;20037;-67
2021/11/22 07:53:45;;;;;;;4.60;0.40;;;2.40;99.90;;;;;;5058620;28;20497;-67
2021/11/22 07:56:12;;;;;;;5.35;0.40;;;2.40;99.90;;;;;;5056869;28;20075;-66
2021/11/22 07:58:38;;;;;;;4.15;0.35;;;2.40;99.90;;;;;;5089456;28;20072;-67
2021/11/22 08:01:04;;;;;;;4.63;0.35;;;2.30;99.90;;;;;;5058861;28;20085;-67
2021/11/22 08:03:31;;;;;;;3.03;0.30;;;2.30;99.90;;;;;;5049565;28;20036;-67
2021/11/22 08:05:58;;;;;;;5.15;0.50;;;2.20;99.90;;;;;;5059591;28;20041;-66
2021/11/22 08:08:27;;;;;;;3.08;0.20;;;2.20;99.90;;;;;;5060409;28;20049;-66
2021/11/22 08:13:38;;;;;;;3.15;0.40;;;2.30;99.90;;;;;;5063956;28;20028;-67
2021/11/22 08:16:05;;;;;;;3.55;0.90;;;2.40;99.90;;;;;;5061915;28;20076;-67
2021/11/22 08:18:38;;;;;;;7.45;0.77;;;2.50;99.90;;;;;;5061585;28;20040;-67
2021/11/22 08:21:05;;;;;;;5.25;0.50;;;2.60;99.90;;;;;;5061152;28;20052;-67
2021/11/22 08:23:31;;;;;;;2.70;0.70;;;2.70;99.90;;;;;;5063356;28;20043;-66
2021/11/22 08:25:57;;;;;;;2.40;0.40;;;2.80;99.90;;;;;;5059927;28;20173;-67
2021/11/22 08:28:23;;;;;;;3.08;0.40;;;2.80;99.90;;;;;;5059230;28;20040;-67
2021/11/22 08:30:49;;;;;;;5.72;0.65;;;2.90;99.90;;;;;;5063657;28;20044;-67
2021/11/22 08:33:17;;;;;;;5.93;0.50;;;3.10;99.90;;;;;;5061807;28;20390;-67
2021/11/22 08:35:47;;;;;;;3.65;0.90;;;3.00;99.90;;;;;;5060890;28;20051;-67
2021/11/22 08:38:14;;;;;;;5.00;0.57;;;3.10;99.90;;;;;;5093126;28;20033;-67
2021/11/22 08:40:41;;;;;;;3.78;1.15;;;3.10;99.90;;;;;;5063016;28;20033;-67
2021/11/22 08:43:12;;;;;;;5.07;0.98;;;3.30;99.90;;;;;;5062492;28;20121;-67
2021/11/22 08:45:38;;;;;;;3.58;0.40;;;3.20;99.90;;;;;;5061803;28;20036;-67
2021/11/22 08:48:05;;;;;;;2.35;0.45;;;3.40;99.90;;;;;;5059778;28;20121;-67
2021/11/22 08:50:31;;;;;;;3.35;0.85;;;3.40;99.90;;;;;;5057450;28;20056;-67
2021/11/22 08:52:57;;;;;;;5.07;0.73;;;3.50;99.90;;;;;;5057436;28;20047;-67
2021/11/22 08:55:23;;;;;;;3.03;0.60;;;3.50;99.90;;;;;;5061064;28;20048;-67
2021/11/22 08:57:50;;;;;;;9.10;0.73;;;3.60;99.90;;;;;;5060070;28;20057;-67
2021/11/22 09:00:20;;;;;;;2.20;0.50;;;3.70;99.90;;;;;;5060873;28;20041;-68
2021/11/22 09:02:46;;;;;;;4.07;0.60;;;3.70;99.90;;;;;;5061498;28;20044;-67
2021/11/22 09:05:11;;;;;;;3.65;0.57;;;3.80;99.90;;;;;;5061497;28;20089;-68
2021/11/22 09:07:37;;;;;;;2.40;0.40;;;3.80;99.90;;;;;;5064377;28;20037;-67
2021/11/22 09:10:04;;;;;;;8.63;0.60;;;3.90;99.90;;;;;;5057752;28;20067;-67
2021/11/22 09:12:30;;;;;;;3.72;0.98;;;3.90;99.90;;;;;;5062698;28;20047;-67
2021/11/22 09:14:56;;;;;;;6.68;0.47;;;4.00;99.90;;;;;;5059229;28;20143;-67
2021/11/22 09:17:22;;;;;;;5.90;0.88;;;4.00;99.90;;;;;;5061977;28;20036;-67
2021/11/22 09:19:47;;;;;;;1.50;0.40;;;4.10;99.90;;;;;;5058709;28;20033;-67
2021/11/22 09:22:14;;;;;;;3.15;0.68;;;4.20;99.90;;;;;;5043627;28;20045;-67
2021/11/22 09:24:41;;;;;;;8.02;0.68;;;4.20;99.90;;;;;;5063243;28;20051;-67
2021/11/22 09:27:07;;;;;;;5.97;0.70;;;4.20;99.90;;;;;;5092858;28;20036;-67
2021/11/22 09:29:34;;;;;;;5.43;0.60;;;4.40;99.90;;;;;;5062010;28;20032;-67
2021/11/22 09:31:59;;;;;;;4.82;0.50;;;4.50;99.90;;;;;;5060886;28;20478;-67
2021/11/22 09:34:25;;;;;;;2.20;0.28;;;4.60;99.90;;;;;;5062036;28;20082;-67
2021/11/22 09:36:51;;;;;;;2.72;0.43;;;4.70;99.90;;;;;;5062801;28;20063;-67
2021/11/22 09:39:19;;;;;;;5.75;0.77;;;4.70;99.90;;;;;;5060985;28;20055;-67
2021/11/22 09:41:47;;;;;;;6.03;0.75;;;4.80;99.90;;;;;;5060256;28;20059;-67
2021/11/22 09:44:14;;;;;;;2.47;0.32;;;4.90;99.90;;;;;;5061319;28;20475;-67
2021/11/22 09:46:40;;;;;;;10.75;0.80;;;5.00;99.90;;;;;;5059666;28;20048;-67
2021/11/22 09:49:07;;;;;;;5.13;0.40;;;5.00;99.90;;;;;;5059048;28;20048;-67
2021/11/22 09:51:34;;;;;;;3.78;0.45;;;5.10;99.90;;;;;;5060433;28;20632;-66
2021/11/22 09:54:00;;;;;;;2.22;0.40;;;5.10;99.90;;;;;;5059683;28;20045;-67
2021/11/22 09:56:26;;;;;;;5.88;0.82;;;5.20;99.90;;;;;;5061631;28;20044;-67
2021/11/22 09:58:52;;;;;;;5.50;0.45;;;5.30;99.90;;;;;;5057021;28;20057;-67
2021/11/22 10:01:20;;;;;;;5.60;0.68;;;5.30;99.90;;;;;;5060898;28;20175;-67
2021/11/22 10:04:07;;;;;;;6.35;0.47;;;5.50;99.90;;;;;;5059772;28;20107;-67
2021/11/22 10:06:52;;;;;;;4.15;0.40;;;5.60;99.90;;;;;;5059796;28;20040;-67
2021/11/22 10:09:39;;;;;;;1.58;0.30;;;5.70;99.90;;;;;;5058002;28;20044;-67
2021/11/22 10:12:14;;;;;;;4.90;0.60;;;5.80;99.90;;;;;;5089680;28;20075;-67
2021/11/22 10:14:48;;;;;;;2.75;0.32;;;5.80;99.90;;;;;;5059941;28;20124;-67
2021/11/22 10:17:32;;;;;;;6.78;0.68;;;5.90;99.90;;;;;;5076495;28;20036;-67
2021/11/22 10:20:24;;;;;;;4.05;0.55;;;5.90;99.90;;;;;;5057564;28;20058;-67
2021/11/22 10:23:00;;;;;;;6.78;0.40;;;6.10;99.90;;;;;;5056864;28;20070;-67
2021/11/22 10:25:38;;;;;;;3.78;0.55;;;6.20;99.90;;;;;;5090731;28;21097;-67
2021/11/22 10:28:22;;;;;;;1.98;0.30;;;6.20;99.90;;;;;;5089930;28;20792;-67
2021/11/22 10:30:51;;;;;;;5.78;0.50;;;6.40;99.90;;;;;;5055854;28;20060;-67
2021/11/22 10:33:20;;;;;;;1.63;0.30;;;6.50;99.90;;;;;;5060021;28;20040;-67
2021/11/22 10:35:46;;;;;;;2.72;0.47;;;6.60;99.90;;;;;;5059579;28;20047;-67
2021/11/22 10:38:18;;;;;;;1.98;0.30;;;6.80;99.90;;;;;;5060427;28;20032;-67
2021/11/22 10:40:50;;;;;;;2.92;0.30;;;6.90;99.90;;;;;;5063494;28;20047;-67
2021/11/22 10:43:16;;;;;;;2.75;0.50;;;7.00;99.90;;;;;;5060593;28;20490;-67
2021/11/22 10:45:51;;;;;;;5.18;0.38;;;7.10;99.90;;;;;;5062748;28;20032;-67
2021/11/22 10:48:22;;;;;;;3.40;0.25;;;7.20;99.90;;;;;;5059103;28;20051;-67
2021/11/22 10:50:52;;;;;;;6.25;0.25;;;7.30;99.90;;;;;;5061533;28;20040;-67
2021/11/22 10:53:41;;;;;;;6.32;0.30;;;7.40;99.90;;;;;;5059397;28;20041;-67
2021/11/22 10:56:12;;;;;;;3.97;0.45;;;7.50;99.90;;;;;;5061917;28;20047;-67
2021/11/22 10:58:45;;;;;;;1.75;0.47;;;7.70;99.90;;;;;;5062029;28;20037;-67
2021/11/22 11:01:19;;;;;;;4.00;0.30;;;8.10;99.90;;;;;;5065554;28;20122;-67
2021/11/22 11:03:49;;;;;;;1.10;0.20;;;8.40;99.90;;;;;;5068599;28;20029;-68
2021/11/22 11:06:15;;;;;;;5.70;0.82;;;8.80;99.90;;;;;;5061235;28;20069;-68
2021/11/22 11:08:42;;;;;;;5.57;0.30;;;9.20;99.90;;;;;;5057893;28;20132;-68
2021/11/22 11:11:13;;;;;;;1.30;0.30;;;9.60;99.90;;;;;;5061008;28;20051;-68
2021/11/22 11:13:47;;;;;;;4.00;0.30;;;9.80;99.90;;;;;;5060825;28;20032;-68
2021/11/22 11:16:13;;;;;;;3.90;0.47;;;10.20;99.90;;;;;;5060950;28;20036;-68
2021/11/22 11:18:39;;;;;;;5.88;0.45;;;10.50;99.90;;;;;;5090699;28;20051;-68
2021/11/22 11:21:05;;;;;;;3.83;0.50;;;10.90;99.90;;;;;;5061738;28;20037;-68
2021/11/22 11:23:31;;;;;;;4.97;0.35;;;11.00;99.90;;;;;;5060933;28;20048;-68
2021/11/22 11:25:58;;;;;;;6.95;0.75;;;11.40;99.90;;;;;;5061613;28;20048;-68
2021/11/22 11:28:24;;;;;;;3.78;0.40;;;11.70;99.90;;;;;;5058424;28;20032;-68
2021/11/22 11:30:50;;;;;;;1.00;0.40;;;11.60;99.90;;;;;;5054505;28;20037;-68
2021/11/22 11:33:15;;;;;;;4.13;0.50;;;11.70;99.90;;;;;;5064863;28;20087;-68
2021/11/22 11:35:46;;;;;;;2.50;0.40;;;11.90;99.90;;;;;;5057880;28;20398;-68
2021/11/22 11:38:25;;;;;;;5.25;0.50;;;12.00;99.90;;;;;;5064136;28;20115;-68
2021/11/22 11:41:13;;;;;;;3.13;0.45;;;12.00;99.90;;;;;;5093556;28;20044;-68
2021/11/22 11:43:45;;;;;;;2.60;0.40;;;12.10;99.90;;;;;;5064139;28;20041;-68
2021/11/22 11:46:20;;;;;;;2.15;0.30;;;12.20;99.90;;;;;;5060689;28;20079;-68
2021/11/22 11:49:06;;;;;;;2.28;0.57;;;12.00;99.90;;;;;;5061342;28;20090;-68
2021/11/22 11:51:39;;;;;;;1.77;0.30;;;11.90;99.90;;;;;;5061961;28;20068;-68
2021/11/22 11:54:23;;;;;;;3.55;0.40;;;11.80;99.90;;;;;;5061769;28;20117;-68
2021/11/22 11:57:01;;;;;;;2.15;0.38;;;11.60;99.90;;;;;;5059098;28;20094;-68
2021/11/22 11:59:37;;;;;;;1.15;0.20;;;11.70;99.90;;;;;;5056802;28;20566;-68
2021/11/22 12:02:05;;;;;;;4.45;0.50;;;11.60;99.90;;;;;;5061124;28;20040;-68
2021/11/22 12:04:50;;;;;;;2.35;0.30;;;11.60;99.90;;;;;;5060110;28;20045;-68
2021/11/22 12:07:38;;;;;;;1.63;0.20;;;11.50;99.80;;;;;;5060601;28;20053;-68
2021/11/22 12:10:09;;;;;;;3.08;0.28;;;11.40;98.10;;;;;;5060142;28;20036;-68
2021/11/22 12:12:46;;;;;;;4.13;0.40;;;11.40;99.00;;;;;;5058075;28;20483;-68
2021/11/22 12:15:16;;;;;;;2.80;0.30;;;11.40;97.60;;;;;;5075091;28;20055;-67
2021/11/22 12:17:42;;;;;;;1.85;0.35;;;11.40;98.10;;;;;;5058676;28;20033;-68
2021/11/22 12:20:24;;;;;;;3.80;0.47;;;11.20;99.20;;;;;;5045359;28;20398;-68
2021/11/22 12:22:52;;;;;;;7.45;0.60;;;11.10;98.10;;;;;;5059583;28;20049;-67
2021/11/22 12:25:42;;;;;;;6.15;0.50;;;11.10;99.90;;;;;;5061009;28;20039;-67
2021/11/22 12:28:20;;;;;;;6.55;1.83;;;11.00;99.90;;;;;;5066286;28;20044;-68
2021/11/22 12:30:49;;;;;;;2.15;0.60;;;11.10;99.90;;;;;;5056856;28;20037;-67
2021/11/22 12:33:21;;;;;;;2.25;0.20;;;11.00;99.90;;;;;;5060468;28;20043;-68
2021/11/22 12:36:01;;;;;;;2.45;0.50;;;11.00;99.90;;;;;;5060240;28;20046;-68
2021/11/22 12:38:35;;;;;;;2.40;0.30;;;11.00;99.90;;;;;;5055797;28;20037;-68
2021/11/22 12:41:08;;;;;;;3.58;0.20;;;10.80;99.90;;;;;;5059355;28;20043;-68
2021/11/22 12:43:36;;;;;;;2.70;0.25;;;10.80;99.90;;;;;;5059715;28;20036;-68
2021/11/22 12:46:04;;;;;;;6.15;0.73;;;10.80;99.90;;;;;;5059188;28;20522;-68
2021/11/22 12:48:43;;;;;;;4.85;0.40;;;10.80;99.90;;;;;;5062041;28;20237;-67
2021/11/22 12:51:15;;;;;;;2.28;0.30;;;10.60;99.90;;;;;;5062923;28;20063;-68
2021/11/22 12:54:03;;;;;;;2.97;0.43;;;10.50;99.90;;;;;;5067027;28;20452;-67
2021/11/22 12:56:34;;;;;;;3.45;0.77;;;10.50;99.90;;;;;;5063559;28;20044;-68
2021/11/22 12:59:15;;;;;;;3.17;0.30;;;10.40;99.90;;;;;;5095411;28;20044;-67
2021/11/22 13:01:46;;;;;;;3.35;0.30;;;10.30;99.90;;;;;;5062624;28;20490;-67
2021/11/22 13:04:39;;;;;;;1.77;0.30;;;10.20;99.90;;;;;;5066089;28;20045;-67